Time;durP1;ratioP1;P1;durP2;ratioP2;P2;SDS_P1;SDS_P2;PMS_P1;PMS_P2;Temp;Humidity;BMP_temperature;BMP_pressure;BME280_temperature;BME280_humidity;BME280_pressure;Samples;Min_cycle;Max_cycle;Signal;HPM_P1;HPM_P2
2021/05/26 00:00:58;;;;;;;;;;;20.70;55.10;;;;;;5044669;28;19928;-69
2021/05/26 00:03:24;;;;;;;;;;;20.70;54.80;;;;;;5045011;28;20416;-68
2021/05/26 00:05:50;;;;;;;;;;;20.70;54.70;;;;;;5045547;28;20348;-69
2021/05/26 00:08:24;;;;;;;;;;;20.70;54.40;;;;;;5043022;28;19940;-70
2021/05/26 00:10:50;;;;;;;;;;;20.80;54.40;;;;;;5043784;28;20443;-69
2021/05/26 00:13:16;;;;;;;;;;;20.80;54.30;;;;;;5041448;28;19928;-70
2021/05/26 00:15:42;;;;;;;;;;;20.80;54.20;;;;;;5047546;28;19929;-69
2021/05/26 00:18:09;;;;;;;;;;;20.80;54.00;;;;;;5047067;28;19936;-69
2021/05/26 00:20:35;;;;;;;;;;;20.80;54.10;;;;;;5045389;28;19940;-69
2021/05/26 00:23:01;;;;;;;;;;;20.80;54.20;;;;;;5045571;28;19951;-71
2021/05/26 00:25:27;;;;;;;;;;;20.80;54.30;;;;;;5031341;28;20393;-68
2021/05/26 00:27:58;;;;;;;;;;;20.80;54.30;;;;;;5033188;28;19935;-69
2021/05/26 00:30:24;;;;;;;;;;;20.80;54.90;;;;;;5029709;28;20331;-69
2021/05/26 00:32:50;;;;;;;;;;;20.80;54.80;;;;;;5040340;28;19936;-69
2021/05/26 00:35:17;;;;;;;;;;;20.70;54.40;;;;;;5028804;28;19940;-70
2021/05/26 00:37:43;;;;;;;;;;;20.70;54.90;;;;;;5041065;28;19933;-69
2021/05/26 00:40:09;;;;;;;;;;;20.70;55.20;;;;;;5040378;28;20427;-69
2021/05/26 00:42:35;;;;;;;;;;;20.70;54.90;;;;;;5045592;28;19939;-69
2021/05/26 00:45:01;;;;;;;;;;;20.70;55.60;;;;;;5042415;28;19928;-70
2021/05/26 00:47:40;;;;;;;;;;;20.70;55.70;;;;;;5025509;28;19936;-69
2021/05/26 00:50:06;;;;;;;;;;;20.70;55.40;;;;;;5042418;28;20927;-69
2021/05/26 00:52:33;;;;;;;;;;;20.70;55.20;;;;;;5046287;28;19928;-69
2021/05/26 00:54:59;;;;;;;;;;;20.70;55.00;;;;;;5039321;28;19986;-70
2021/05/26 00:57:25;;;;;;;;;;;20.70;55.20;;;;;;5041157;28;19964;-69
2021/05/26 00:59:51;;;;;;;;;;;20.70;55.40;;;;;;5042197;28;19936;-68
2021/05/26 01:02:17;;;;;;;;;;;20.70;55.10;;;;;;5043058;28;19929;-69
2021/05/26 01:04:43;;;;;;;;;;;20.70;55.20;;;;;;5044381;28;19936;-69
2021/05/26 01:07:10;;;;;;;;;;;20.70;55.20;;;;;;5042781;28;20021;-69
2021/05/26 01:09:37;;;;;;;;;;;20.70;55.10;;;;;;5038099;28;19940;-69
2021/05/26 01:12:04;;;;;;;;;;;20.70;55.10;;;;;;5026383;28;19932;-68
2021/05/26 01:14:30;;;;;;;;;;;20.60;55.40;;;;;;5045739;28;19928;-69
2021/05/26 01:16:56;;;;;;;;;;;20.60;54.90;;;;;;5043012;28;19955;-69
2021/05/26 01:19:22;;;;;;;;;;;20.70;55.40;;;;;;5047328;28;19928;-69
2021/05/26 01:21:49;;;;;;;;;;;20.60;55.00;;;;;;5040180;28;19978;-69
2021/05/26 01:24:15;;;;;;;;;;;20.60;55.20;;;;;;5037779;28;19936;-69
2021/05/26 01:26:41;;;;;;;;;;;20.60;55.70;;;;;;5014318;28;19933;-69
2021/05/26 01:29:07;;;;;;;;;;;20.60;55.60;;;;;;5044944;28;19928;-69
2021/05/26 01:31:33;;;;;;;;;;;20.60;55.30;;;;;;5045940;28;19929;-69
2021/05/26 01:33:59;;;;;;;;;;;20.60;55.70;;;;;;5042103;28;19977;-70
2021/05/26 01:36:26;;;;;;;;;;;20.60;55.70;;;;;;5040262;28;19935;-69
2021/05/26 01:38:52;;;;;;;;;;;20.60;55.70;;;;;;5048719;28;19928;-69
2021/05/26 01:41:18;;;;;;;;;;;20.60;55.70;;;;;;5046077;28;19971;-69
2021/05/26 01:43:46;;;;;;;;;;;20.60;55.10;;;;;;5045531;28;19956;-68
2021/05/26 01:46:12;;;;;;;;;;;20.70;55.20;;;;;;5015647;28;21187;-69
2021/05/26 01:48:38;;;;;;;;;;;20.70;55.50;;;;;;5046003;28;19935;-69
2021/05/26 01:51:04;;;;;;;;;;;20.60;55.10;;;;;;5049704;28;19937;-69
2021/05/26 01:53:30;;;;;;;;;;;20.70;55.40;;;;;;5045143;28;19951;-70
2021/05/26 01:55:57;;;;;;;;;;;20.60;54.80;;;;;;5024797;28;20008;-69
2021/05/26 01:58:23;;;;;;;;;;;20.70;55.70;;;;;;5042887;28;20503;-70
2021/05/26 02:00:49;;;;;;;;;;;20.70;54.80;;;;;;5046460;28;19928;-68
2021/05/26 02:03:15;;;;;;;;;;;20.70;54.60;;;;;;5046353;28;19935;-68
2021/05/26 02:05:41;;;;;;;;;;;20.70;54.40;;;;;;5048765;28;19928;-69
2021/05/26 02:08:07;;;;;;;;;;;20.70;54.30;;;;;;5042640;28;19929;-70
2021/05/26 02:13:18;;;;;;;;;;;20.70;54.60;;;;;;5046395;28;19995;-69
2021/05/26 02:15:44;;;;;;;;;;;20.70;55.00;;;;;;5047575;28;19982;-69
2021/05/26 02:18:10;;;;;;;;;;;20.70;54.90;;;;;;5045951;28;19983;-69
2021/05/26 02:20:36;;;;;;;;;;;20.70;55.60;;;;;;5045209;28;19932;-68
2021/05/26 02:23:02;;;;;;;;;;;20.70;54.90;;;;;;5047498;28;19947;-70
2021/05/26 02:25:28;;;;;;;;;;;20.70;55.20;;;;;;5044761;28;20383;-69
2021/05/26 02:27:54;;;;;;;;;;;20.70;54.90;;;;;;5043117;28;19928;-69
2021/05/26 02:30:22;;;;;;;;;;;20.60;54.80;;;;;;5046687;28;20359;-69
2021/05/26 02:32:48;;;;;;;;;;;20.60;54.80;;;;;;5041249;28;20850;-68
2021/05/26 02:35:14;;;;;;;;;;;20.60;55.00;;;;;;5049545;28;19933;-69
2021/05/26 02:37:40;;;;;;;;;;;20.70;54.80;;;;;;5042527;28;19933;-69
2021/05/26 02:40:07;;;;;;;;;;;20.60;55.70;;;;;;5045440;28;19929;-68
2021/05/26 02:42:33;;;;;;;;;;;20.60;55.10;;;;;;5045676;28;19939;-68
2021/05/26 02:44:59;;;;;;;;;;;20.60;54.80;;;;;;5042728;28;19947;-69
2021/05/26 02:47:26;;;;;;;;;;;20.70;54.50;;;;;;5047325;28;19932;-69
2021/05/26 02:49:52;;;;;;;;;;;20.70;54.50;;;;;;5044555;28;19996;-70
2021/05/26 02:52:18;;;;;;;;;;;20.70;55.20;;;;;;5045669;28;20346;-69
2021/05/26 02:54:44;;;;;;;;;;;20.70;55.00;;;;;;5043715;28;19932;-69
2021/05/26 02:57:10;;;;;;;;;;;20.70;54.90;;;;;;5039888;28;19978;-69
2021/05/26 02:59:36;;;;;;;;;;;20.60;55.10;;;;;;5023395;28;19936;-68
2021/05/26 03:02:02;;;;;;;;;;;20.60;55.50;;;;;;5026652;28;19928;-69
2021/05/26 03:04:29;;;;;;;;;;;20.50;55.10;;;;;;5046440;28;19936;-70
2021/05/26 03:06:55;;;;;;;;;;;20.50;55.20;;;;;;5044787;28;21011;-70
2021/05/26 03:09:21;;;;;;;;;;;20.50;55.30;;;;;;5048036;28;20401;-69
2021/05/26 03:11:47;;;;;;;;;;;20.50;55.60;;;;;;5048966;28;19936;-70
2021/05/26 03:14:13;;;;;;;;;;;20.50;55.20;;;;;;5044687;28;19935;-68
2021/05/26 03:16:41;;;;;;;;;;;20.50;55.40;;;;;;5031675;28;19940;-69
2021/05/26 03:19:07;;;;;;;;;;;20.50;55.20;;;;;;5036652;28;19932;-69
2021/05/26 03:21:34;;;;;;;;;;;20.50;55.60;;;;;;5047860;28;19928;-69
2021/05/26 03:24:00;;;;;;;;;;;20.40;55.50;;;;;;5037332;28;20467;-68
2021/05/26 03:26:27;;;;;;;;;;;20.50;55.60;;;;;;5039518;28;19936;-69
2021/05/26 03:28:53;;;;;;;;;;;20.40;55.50;;;;;;5044516;28;19935;-69
2021/05/26 03:31:18;;;;;;;;;;;20.50;55.60;;;;;;5044691;28;20647;-70
2021/05/26 03:33:44;;;;;;;;;;;20.50;55.60;;;;;;5049317;28;19936;-69
2021/05/26 03:36:11;;;;;;;;;;;20.60;55.70;;;;;;5031779;28;19929;-69
2021/05/26 03:38:37;;;;;;;;;;;20.60;55.70;;;;;;5048921;28;19928;-68
2021/05/26 03:41:03;;;;;;;;;;;20.70;55.40;;;;;;5035580;28;19981;-69
2021/05/26 03:43:29;;;;;;;;;;;20.70;55.40;;;;;;5038762;28;19937;-70
2021/05/26 03:45:55;;;;;;;;;;;20.70;55.10;;;;;;5045256;28;20757;-70
2021/05/26 03:48:21;;;;;;;;;;;20.70;55.30;;;;;;5046102;28;20412;-69
2021/05/26 03:50:47;;;;;;;;;;;20.70;55.30;;;;;;5046130;28;19932;-70
2021/05/26 03:53:14;;;;;;;;;;;20.70;55.60;;;;;;5041731;28;19928;-69
2021/05/26 03:55:40;;;;;;;;;;;20.70;55.10;;;;;;5040095;28;19929;-70
2021/05/26 03:58:06;;;;;;;;;;;20.70;55.20;;;;;;5043978;28;19933;-70
2021/05/26 04:00:32;;;;;;;;;;;20.70;55.50;;;;;;5038576;28;19936;-69
2021/05/26 04:02:58;;;;;;;;;;;20.70;55.50;;;;;;5036668;28;19928;-68
2021/05/26 04:05:24;;;;;;;;;;;20.70;55.50;;;;;;5043883;28;19932;-69
2021/05/26 04:07:50;;;;;;;;;;;20.70;55.20;;;;;;5045897;28;19935;-69
2021/05/26 04:10:16;;;;;;;;;;;20.80;55.10;;;;;;5031861;28;19929;-69
2021/05/26 04:12:43;;;;;;;;;;;20.80;54.90;;;;;;5044299;28;19929;-68
2021/05/26 04:15:10;;;;;;;;;;;20.80;54.70;;;;;;5040998;28;19950;-69
2021/05/26 04:17:36;;;;;;;;;;;20.80;54.50;;;;;;5043186;28;20388;-69
2021/05/26 04:20:05;;;;;;;;;;;20.90;54.40;;;;;;5046380;28;19977;-70
2021/05/26 04:22:31;;;;;;;;;;;20.90;54.40;;;;;;5041874;28;20023;-69
2021/05/26 04:24:57;;;;;;;;;;;20.90;54.40;;;;;;5045569;28;19924;-69
2021/05/26 04:27:23;;;;;;;;;;;20.90;54.30;;;;;;5045392;28;19928;-68
2021/05/26 04:29:50;;;;;;;;;;;20.90;54.50;;;;;;5039624;28;19928;-69
2021/05/26 04:32:16;;;;;;;;;;;20.90;54.50;;;;;;5045723;28;19940;-70
2021/05/26 04:34:42;;;;;;;;;;;20.90;54.60;;;;;;5045544;28;19929;-69
2021/05/26 04:37:08;;;;;;;;;;;20.80;54.50;;;;;;5042855;28;19947;-69
2021/05/26 04:39:34;;;;;;;;;;;20.90;54.40;;;;;;5039412;28;20363;-69
2021/05/26 04:42:00;;;;;;;;;;;20.80;54.20;;;;;;5034949;28;19928;-69
2021/05/26 04:44:26;;;;;;;;;;;20.80;54.20;;;;;;5042720;28;19935;-69
2021/05/26 04:46:53;;;;;;;;;;;20.80;54.30;;;;;;5031252;28;19928;-70
2021/05/26 04:49:19;;;;;;;;;;;20.80;54.20;;;;;;5041872;28;19932;-70
2021/05/26 04:51:45;;;;;;;;;;;20.80;54.30;;;;;;5026638;28;19933;-70
2021/05/26 04:54:11;;;;;;;;;;;20.80;54.40;;;;;;5038400;28;20563;-68
2021/05/26 04:56:37;;;;;;;;;;;20.80;54.20;;;;;;5045873;28;19932;-68
2021/05/26 04:59:03;;;;;;;;;;;20.80;54.10;;;;;;5042601;28;19936;-69
2021/05/26 05:01:29;;;;;;;;;;;20.80;53.90;;;;;;5048090;28;19936;-68
2021/05/26 05:03:56;;;;;;;;;;;20.80;54.80;;;;;;5046770;28;19932;-69
2021/05/26 05:06:22;;;;;;;;;;;20.90;55.10;;;;;;5045873;28;19933;-69
2021/05/26 05:08:48;;;;;;;;;;;20.90;54.80;;;;;;5049160;28;21025;-70
2021/05/26 05:11:14;;;;;;;;;;;20.90;55.30;;;;;;5049582;28;20419;-69
2021/05/26 05:13:40;;;;;;;;;;;20.90;55.30;;;;;;5049307;28;19936;-70
2021/05/26 05:16:06;;;;;;;;;;;20.80;55.90;;;;;;5042265;28;20409;-69
2021/05/26 05:18:32;;;;;;;;;;;20.80;55.80;;;;;;5047433;28;19928;-70
2021/05/26 05:20:59;;;;;;;;;;;20.80;55.50;;;;;;5046554;28;19935;-68
2021/05/26 05:23:25;;;;;;;;;;;20.70;55.70;;;;;;5042969;28;19933;-68
2021/05/26 05:25:51;;;;;;;;;;;20.70;55.00;;;;;;5025451;28;20003;-69
2021/05/26 05:28:17;;;;;;;;;;;20.60;55.70;;;;;;5038967;28;19983;-68
2021/05/26 05:30:43;;;;;;;;;;;20.60;55.30;;;;;;5033139;28;19939;-68
2021/05/26 05:33:09;;;;;;;;;;;20.60;55.70;;;;;;5018190;28;19978;-69
2021/05/26 05:35:35;;;;;;;;;;;20.60;55.60;;;;;;5042152;28;19925;-68
2021/05/26 05:38:02;;;;;;;;;;;20.60;55.70;;;;;;5039012;28;19929;-69
2021/05/26 05:40:28;;;;;;;;;;;20.50;55.60;;;;;;5038480;28;19928;-69
2021/05/26 05:42:54;;;;;;;;;;;20.50;55.60;;;;;;5034475;28;20498;-69
2021/05/26 05:45:20;;;;;;;;;;;20.50;55.60;;;;;;5032187;28;20819;-68
2021/05/26 05:47:46;;;;;;;;;;;20.60;55.70;;;;;;5031041;28;19932;-69
2021/05/26 05:50:15;;;;;;;;;;;20.60;55.70;;;;;;5034183;28;19936;-69
2021/05/26 05:52:42;;;;;;;;;;;20.60;55.70;;;;;;5031873;28;19944;-68
2021/05/26 05:55:10;;;;;;;;;;;20.60;56.20;;;;;;5033721;28;19933;-68
2021/05/26 05:57:37;;;;;;;;;;;20.70;56.30;;;;;;5034479;28;19932;-68
2021/05/26 06:00:03;;;;;;;;;;;20.70;57.00;;;;;;5034929;28;20831;-70
2021/05/26 06:02:29;;;;;;;;;;;20.70;57.40;;;;;;5038814;28;20320;-68
2021/05/26 06:04:55;;;;;;;;;;;20.60;57.70;;;;;;5036323;28;20289;-68
2021/05/26 06:07:21;;;;;;;;;;;20.60;58.10;;;;;;5032752;28;19935;-68
2021/05/26 06:09:47;;;;;;;;;;;20.60;58.30;;;;;;5045990;28;19929;-69
2021/05/26 06:12:14;;;;;;;;;;;20.60;58.20;;;;;;5041421;28;19937;-68
2021/05/26 06:14:40;;;;;;;;;;;20.60;58.50;;;;;;5034395;28;19935;-69
2021/05/26 06:17:06;;;;;;;;;;;20.60;58.60;;;;;;5038654;28;19929;-68
2021/05/26 06:19:32;;;;;;;;;;;20.60;58.20;;;;;;5037245;28;19933;-69
2021/05/26 06:21:58;;;;;;;;;;;20.60;57.90;;;;;;5034921;28;19936;-68
2021/05/26 06:24:24;;;;;;;;;;;20.60;57.40;;;;;;5024678;28;19971;-69
2021/05/26 06:26:50;;;;;;;;;;;20.70;57.50;;;;;;5035249;28;19933;-68
2021/05/26 06:29:17;;;;;;;;;;;20.60;56.90;;;;;;5031888;28;19928;-69
2021/05/26 06:31:43;;;;;;;;;;;20.70;56.90;;;;;;5028594;28;20957;-68
2021/05/26 06:34:09;;;;;;;;;;;20.60;57.40;;;;;;5034607;28;19928;-69
2021/05/26 06:36:36;;;;;;;;;;;20.70;57.50;;;;;;5032972;28;19935;-68
2021/05/26 06:39:02;;;;;;;;;;;20.60;57.30;;;;;;5043794;28;20454;-69
2021/05/26 06:41:28;;;;;;;;;;;20.60;57.20;;;;;;5043034;28;19929;-68
2021/05/26 06:43:54;;;;;;;;;;;20.60;57.20;;;;;;5032146;28;20029;-69
2021/05/26 06:46:21;;;;;;;;;;;20.60;57.00;;;;;;5037638;28;19941;-68
2021/05/26 06:48:47;;;;;;;;;;;20.60;56.70;;;;;;5035082;28;19932;-68
2021/05/26 06:51:13;;;;;;;;;;;20.60;56.40;;;;;;5032624;28;19928;-68
2021/05/26 06:53:39;;;;;;;;;;;20.60;56.40;;;;;;5027324;28;21092;-69
2021/05/26 06:56:05;;;;;;;;;;;20.70;56.50;;;;;;5036160;28;19986;-69
2021/05/26 06:58:31;;;;;;;;;;;20.70;56.40;;;;;;5031706;28;19928;-68
2021/05/26 07:00:57;;;;;;;;;;;20.70;56.90;;;;;;5035154;28;20496;-68
2021/05/26 07:03:24;;;;;;;;;;;20.70;57.10;;;;;;5040860;28;19929;-68
2021/05/26 07:05:50;;;;;;;;;;;20.70;57.60;;;;;;5035117;28;19937;-70
2021/05/26 07:08:16;;;;;;;;;;;20.70;57.50;;;;;;5042049;28;19963;-69
2021/05/26 07:10:42;;;;;;;;;;;20.60;57.70;;;;;;5028878;28;20440;-68
2021/05/26 07:13:08;;;;;;;;;;;20.60;57.70;;;;;;5028607;28;19929;-68
2021/05/26 07:15:34;;;;;;;;;;;20.60;58.40;;;;;;5037819;28;19940;-69
2021/05/26 07:18:03;;;;;;;;;;;20.60;57.80;;;;;;5036718;28;19949;-69
2021/05/26 07:20:30;;;;;;;;;;;20.60;59.10;;;;;;5038345;28;20351;-69
2021/05/26 07:22:56;;;;;;;;;;;20.60;58.60;;;;;;5027901;28;20339;-67
2021/05/26 07:25:22;;;;;;;;;;;20.60;58.40;;;;;;5031890;28;20723;-68
2021/05/26 07:27:49;;;;;;;;;;;20.50;58.40;;;;;;5026235;28;20893;-68
2021/05/26 07:30:15;;;;;;;;;;;20.50;57.80;;;;;;5032545;28;19971;-69
2021/05/26 07:32:41;;;;;;;;;;;20.60;57.80;;;;;;5034986;28;20273;-70
2021/05/26 07:35:08;;;;;;;;;;;20.50;57.60;;;;;;5018532;28;19936;-68
2021/05/26 07:37:35;;;;;;;;;;;20.60;58.50;;;;;;5026934;28;19933;-68
2021/05/26 07:40:01;;;;;;;;;;;20.60;57.90;;;;;;5037055;28;20798;-69
2021/05/26 07:42:27;;;;;;;;;;;20.60;58.30;;;;;;5019489;28;19929;-69
2021/05/26 07:44:53;;;;;;;;;;;20.60;58.40;;;;;;5030268;28;19990;-69
2021/05/26 07:47:19;;;;;;;;;;;20.50;58.10;;;;;;5033155;28;19937;-69
2021/05/26 07:49:45;;;;;;;;;;;20.50;58.20;;;;;;5032474;28;19932;-68
2021/05/26 07:52:13;;;;;;;;;;;20.50;58.30;;;;;;5033706;28;19952;-69
2021/05/26 07:54:41;;;;;;;;;;;20.50;58.30;;;;;;5026209;28;19932;-69
2021/05/26 07:57:07;;;;;;;;;;;20.50;58.40;;;;;;5031486;28;19944;-70
2021/05/26 07:59:33;;;;;;;;;;;20.50;58.80;;;;;;5027745;28;19933;-69
2021/05/26 08:01:59;;;;;;;;;;;20.50;59.00;;;;;;5029916;28;19933;-69
2021/05/26 08:04:25;;;;;;;;;;;20.50;59.20;;;;;;5028809;28;19929;-69
2021/05/26 08:06:51;;;;;;;;;;;20.50;59.80;;;;;;5033859;28;20324;-69
2021/05/26 08:09:17;;;;;;;;;;;20.50;59.20;;;;;;5029908;28;20614;-68
2021/05/26 08:11:44;;;;;;;;;;;20.50;59.80;;;;;;5037758;28;19932;-68
2021/05/26 08:14:10;;;;;;;;;;;20.50;59.50;;;;;;5028450;28;19928;-69
2021/05/26 08:16:36;;;;;;;;;;;20.50;58.70;;;;;;5032208;28;19935;-69
2021/05/26 08:19:02;;;;;;;;;;;20.50;59.70;;;;;;5029813;28;21213;-69
2021/05/26 08:21:28;;;;;;;;;;;20.50;59.50;;;;;;5018258;28;19935;-69
2021/05/26 08:23:54;;;;;;;;;;;20.50;59.60;;;;;;5023886;28;19933;-69
2021/05/26 08:26:22;;;;;;;;;;;20.50;59.30;;;;;;5034497;28;19935;-69
2021/05/26 08:28:49;;;;;;;;;;;20.50;58.80;;;;;;5035076;28;20436;-68
2021/05/26 08:31:15;;;;;;;;;;;20.50;58.00;;;;;;5000620;28;19979;-69
2021/05/26 08:33:41;;;;;;;;;;;20.50;58.20;;;;;;5035595;28;19933;-69
2021/05/26 08:36:07;;;;;;;;;;;20.60;58.20;;;;;;5038282;28;20392;-70
2021/05/26 08:38:33;;;;;;;;;;;20.60;58.90;;;;;;5036559;28;20003;-69
2021/05/26 08:41:02;;;;;;;;;;;20.60;59.10;;;;;;5033079;28;19928;-69
2021/05/26 08:43:28;;;;;;;;;;;20.60;59.40;;;;;;5033357;28;20014;-69
2021/05/26 08:45:55;;;;;;;;;;;20.60;59.60;;;;;;5032129;28;19944;-71
2021/05/26 08:48:21;;;;;;;;;;;20.60;60.20;;;;;;5036526;28;19952;-69
2021/05/26 08:50:49;;;;;;;;;;;20.60;60.40;;;;;;5027114;28;19928;-68
2021/05/26 08:53:15;;;;;;;;;;;20.60;60.00;;;;;;5030865;28;19929;-69
2021/05/26 08:55:41;;;;;;;;;;;20.70;60.00;;;;;;5030811;28;21444;-71
2021/05/26 08:58:07;;;;;;;;;;;20.70;59.70;;;;;;5035964;28;19928;-69
2021/05/26 09:00:33;;;;;;;;;;;20.80;59.90;;;;;;5035204;28;19936;-69
2021/05/26 09:03:00;;;;;;;;;;;20.80;60.60;;;;;;5027916;28;19930;-68
2021/05/26 09:05:26;;;;;;;;;;;20.80;60.70;;;;;;5027406;28;19929;-70
2021/05/26 09:07:53;;;;;;;;;;;20.80;60.50;;;;;;5029780;28;19929;-70
2021/05/26 09:10:19;;;;;;;;;;;20.80;60.50;;;;;;5034004;28;21237;-69
2021/05/26 09:12:45;;;;;;;;;;;20.80;60.60;;;;;;5000630;28;19975;-68
2021/05/26 09:15:14;;;;;;;;;;;20.80;60.00;;;;;;5031979;28;19933;-68
2021/05/26 09:17:40;;;;;;;;;;;20.80;60.20;;;;;;5034661;28;20479;-69
2021/05/26 09:20:18;;;;;;;;;;;20.80;60.20;;;;;;5020833;28;19929;-69
2021/05/26 09:22:59;;;;;;;;;;;20.80;59.90;;;;;;5027307;28;20031;-68
2021/05/26 09:25:25;;;;;;;;;;;20.80;60.00;;;;;;5025715;28;19929;-69
2021/05/26 09:27:52;;;;;;;;;;;20.80;59.90;;;;;;5030178;28;19952;-69
2021/05/26 09:30:19;;;;;;;;;;;20.80;59.90;;;;;;5029248;28;19978;-69
2021/05/26 09:32:45;;;;;;;;;;;20.80;59.30;;;;;;5026610;28;19929;-68
2021/05/26 09:35:11;;;;;;;;;;;20.80;59.60;;;;;;5030833;28;19929;-69
2021/05/26 09:37:40;;;;;;;;;;;20.80;59.80;;;;;;5030927;28;20894;-67
2021/05/26 09:40:07;;;;;;;;;;;20.80;59.80;;;;;;5016238;28;20370;-69
2021/05/26 09:42:34;;;;;;;;;;;20.80;58.60;;;;;;5026820;28;20015;-69
2021/05/26 09:45:11;;;;;;;;;;;20.80;58.70;;;;;;5033411;28;19998;-69
2021/05/26 09:47:38;;;;;;;;;;;20.80;59.80;;;;;;5035005;28;20572;-68
2021/05/26 09:50:17;;;;;;;;;;;20.80;59.40;;;;;;5037470;28;19932;-68
2021/05/26 09:52:51;;;;;;;;;;;20.80;60.00;;;;;;5036459;28;19998;-68
2021/05/26 09:55:19;;;;;;;;;;;20.80;59.10;;;;;;4996105;28;20356;-69
2021/05/26 09:57:47;;;;;;;;;;;20.80;59.20;;;;;;5004625;28;19951;-69
2021/05/26 10:00:13;;;;;;;;;;;20.70;59.00;;;;;;5032572;28;19936;-69
2021/05/26 10:02:39;;;;;;;;;;;20.70;58.60;;;;;;5040454;28;19936;-69
2021/05/26 10:05:06;;;;;;;;;;;20.70;59.40;;;;;;5032667;28;19991;-69
2021/05/26 10:07:32;;;;;;;;;;;20.70;59.00;;;;;;5022252;28;19935;-70
2021/05/26 10:09:58;;;;;;;;;;;20.70;59.40;;;;;;5029562;28;19929;-68
2021/05/26 10:12:24;;;;;;;;;;;20.70;59.40;;;;;;5036163;28;19932;-68
2021/05/26 10:14:50;;;;;;;;;;;20.70;59.40;;;;;;5027863;28;19928;-69
2021/05/26 10:17:20;;;;;;;;;;;20.70;58.90;;;;;;5030776;28;19940;-69
2021/05/26 10:19:46;;;;;;;;;;;20.70;59.10;;;;;;5036340;28;20343;-69
2021/05/26 10:22:12;;;;;;;;;;;20.70;58.90;;;;;;5035869;28;19933;-68
2021/05/26 10:24:38;;;;;;;;;;;20.80;58.60;;;;;;5032686;28;19932;-69
2021/05/26 10:27:06;;;;;;;;;;;20.80;58.20;;;;;;5031803;28;20440;-69
2021/05/26 10:29:35;;;;;;;;;;;20.80;58.70;;;;;;5027048;28;20496;-68
2021/05/26 10:32:02;;;;;;;;;;;20.80;58.60;;;;;;5025291;28;20451;-69
2021/05/26 10:34:43;;;;;;;;;;;20.80;59.00;;;;;;5027772;28;19935;-69
2021/05/26 10:37:09;;;;;;;;;;;20.80;58.50;;;;;;5030380;28;19932;-69
2021/05/26 10:39:35;;;;;;;;;;;20.80;58.70;;;;;;5036766;28;20264;-69
2021/05/26 10:42:01;;;;;;;;;;;20.80;58.50;;;;;;5034092;28;20389;-68
2021/05/26 10:44:42;;;;;;;;;;;20.80;58.60;;;;;;5035088;28;19928;-69
2021/05/26 10:47:23;;;;;;;;;;;20.80;58.70;;;;;;5026611;28;20608;-69
2021/05/26 10:49:50;;;;;;;;;;;20.80;58.70;;;;;;5009447;28;19998;-68
2021/05/26 10:52:16;;;;;;;;;;;20.80;59.00;;;;;;5006344;28;19936;-69
2021/05/26 10:54:56;;;;;;;;;;;20.80;58.00;;;;;;5036975;28;20454;-69
2021/05/26 10:57:22;;;;;;;;;;;20.80;59.40;;;;;;5038603;28;19951;-69
2021/05/26 11:00:03;;;;;;;;;;;20.80;59.40;;;;;;5032298;28;19935;-69
2021/05/26 11:02:29;;;;;;;;;;;20.70;59.40;;;;;;5016297;28;20319;-68
2021/05/26 11:04:59;;;;;;;;;;;20.70;58.70;;;;;;5025321;28;22379;-69
2021/05/26 11:07:29;;;;;;;;;;;20.70;58.70;;;;;;5039299;28;19928;-69
2021/05/26 11:09:55;;;;;;;;;;;20.70;58.90;;;;;;5034708;28;19936;-69
2021/05/26 11:12:21;;;;;;;;;;;20.70;58.80;;;;;;5030323;28;20351;-68
2021/05/26 11:14:52;;;;;;;;;;;20.70;58.90;;;;;;5036139;28;20766;-68
2021/05/26 11:17:27;;;;;;;;;;;20.70;59.20;;;;;;5004358;28;19935;-69
2021/05/26 11:20:09;;;;;;;;;;;20.60;59.20;;;;;;5045625;28;20046;-69
2021/05/26 11:22:35;;;;;;;;;;;20.60;59.50;;;;;;5038207;28;19929;-68
2021/05/26 11:25:01;;;;;;;;;;;20.70;59.70;;;;;;5030485;28;19928;-70
2021/05/26 11:27:28;;;;;;;;;;;20.60;59.30;;;;;;5030904;28;19952;-69
2021/05/26 11:29:55;;;;;;;;;;;20.70;59.00;;;;;;5009542;28;20521;-69
2021/05/26 11:32:22;;;;;;;;;;;20.70;59.20;;;;;;5018402;28;19969;-70
2021/05/26 11:34:48;;;;;;;;;;;20.70;58.90;;;;;;5027560;28;19935;-69
2021/05/26 11:37:24;;;;;;;;;;;20.70;58.40;;;;;;5020295;28;19929;-69
2021/05/26 11:39:51;;;;;;;;;;;20.70;59.20;;;;;;5023494;28;19928;-69
2021/05/26 11:42:17;;;;;;;;;;;20.70;58.90;;;;;;5033376;28;19929;-69
2021/05/26 11:44:43;;;;;;;;;;;20.70;59.40;;;;;;5031223;28;19933;-68
2021/05/26 11:47:09;;;;;;;;;;;20.70;59.20;;;;;;5025267;28;19933;-70
2021/05/26 11:49:37;;;;;;;;;;;20.70;59.30;;;;;;5036163;28;19963;-70
2021/05/26 11:52:03;;;;;;;;;;;20.70;59.00;;;;;;5034925;28;19937;-69
2021/05/26 11:54:30;;;;;;;;;;;20.70;58.60;;;;;;5030442;28;19928;-69
2021/05/26 11:56:59;;;;;;;;;;;20.70;59.30;;;;;;5035969;28;19936;-69
2021/05/26 11:59:26;;;;;;;;;;;20.70;59.20;;;;;;5027967;28;20015;-69
2021/05/26 12:01:52;;;;;;;;;;;20.70;59.10;;;;;;5040033;28;19928;-69
2021/05/26 12:04:19;;;;;;;;;;;20.70;59.10;;;;;;5036273;28;19929;-68
2021/05/26 12:06:45;;;;;;;;;;;20.70;59.10;;;;;;5041767;28;19929;-69
2021/05/26 12:09:23;;;;;;;;;;;20.70;59.00;;;;;;5042268;28;20469;-67
2021/05/26 12:11:50;;;;;;;;;;;20.70;58.90;;;;;;4992813;28;19929;-67
2021/05/26 12:14:23;;;;;;;;;;;20.70;59.00;;;;;;5025633;28;20613;-68
2021/05/26 12:16:49;;;;;;;;;;;20.70;58.80;;;;;;5011409;28;20494;-68
2021/05/26 12:19:16;;;;;;;;;;;20.70;59.00;;;;;;5007297;28;19929;-69
2021/05/26 12:21:43;;;;;;;;;;;20.70;58.80;;;;;;5043287;28;19928;-68
2021/05/26 12:24:14;;;;;;;;;;;20.70;58.70;;;;;;5034189;28;19933;-68
2021/05/26 12:26:44;;;;;;;;;;;20.70;58.70;;;;;;5040689;28;20118;-68
2021/05/26 12:29:11;;;;;;;;;;;20.80;58.60;;;;;;5033950;28;19933;-68
2021/05/26 12:31:37;;;;;;;;;;;20.70;58.30;;;;;;5028821;28;19929;-69
2021/05/26 12:34:10;;;;;;;;;;;20.70;58.30;;;;;;5030731;28;19933;-68
2021/05/26 12:36:45;;;;;;;;;;;20.70;58.20;;;;;;5033990;28;19936;-69
2021/05/26 12:39:11;;;;;;;;;;;20.70;58.50;;;;;;5032671;28;19960;-69
2021/05/26 12:41:37;;;;;;;;;;;20.70;58.20;;;;;;5035455;28;19951;-68
2021/05/26 12:44:18;;;;;;;;;;;20.60;58.40;;;;;;5029971;28;19956;-68
2021/05/26 12:46:45;;;;;;;;;;;20.60;58.30;;;;;;5034858;28;19928;-69
2021/05/26 12:49:30;;;;;;;;;;;20.60;58.10;;;;;;5042784;28;19954;-69
2021/05/26 12:51:56;;;;;;;;;;;20.60;57.90;;;;;;5036671;28;20046;-68
2021/05/26 12:54:22;;;;;;;;;;;20.70;57.90;;;;;;5034948;28;20062;-69
2021/05/26 12:56:48;;;;;;;;;;;20.70;58.10;;;;;;5027008;28;19928;-69
2021/05/26 12:59:14;;;;;;;;;;;20.70;57.70;;;;;;5036318;28;19936;-68
2021/05/26 13:01:55;;;;;;;;;;;20.70;58.10;;;;;;5028064;28;19935;-69
2021/05/26 13:04:24;;;;;;;;;;;20.70;57.60;;;;;;5010053;28;19948;-68
2021/05/26 13:06:50;;;;;;;;;;;20.70;57.60;;;;;;5004645;28;19936;-69
2021/05/26 13:09:17;;;;;;;;;;;20.70;57.40;;;;;;5021768;28;19929;-68
2021/05/26 13:11:43;;;;;;;;;;;20.60;57.40;;;;;;5031469;28;19939;-69
2021/05/26 13:14:09;;;;;;;;;;;20.60;57.00;;;;;;5026084;28;19933;-69
2021/05/26 13:16:35;;;;;;;;;;;20.60;57.40;;;;;;5033232;28;19979;-68
2021/05/26 13:19:01;;;;;;;;;;;20.60;57.70;;;;;;5018220;28;20432;-69
2021/05/26 13:21:28;;;;;;;;;;;20.60;57.60;;;;;;5035956;28;19994;-69
2021/05/26 13:23:54;;;;;;;;;;;20.60;57.50;;;;;;5026159;28;19935;-69
2021/05/26 13:26:20;;;;;;;;;;;20.60;57.80;;;;;;5039913;28;20871;-69
2021/05/26 13:28:46;;;;;;;;;;;20.60;57.90;;;;;;5018648;28;19929;-68
2021/05/26 13:31:12;;;;;;;;;;;20.60;57.80;;;;;;5033482;28;20435;-69
2021/05/26 13:33:39;;;;;;;;;;;20.60;57.70;;;;;;5045731;28;19928;-69
2021/05/26 13:36:05;;;;;;;;;;;20.60;57.90;;;;;;5043551;28;19940;-69
2021/05/26 13:38:32;;;;;;;;;;;20.60;57.70;;;;;;5031232;28;19955;-69
2021/05/26 13:40:58;;;;;;;;;;;20.60;57.70;;;;;;5032715;28;20483;-68
2021/05/26 13:43:25;;;;;;;;;;;20.60;57.60;;;;;;5035636;28;19935;-68
2021/05/26 13:45:51;;;;;;;;;;;20.60;57.60;;;;;;5030853;28;19929;-68
2021/05/26 13:48:17;;;;;;;;;;;20.60;57.70;;;;;;5021394;28;20016;-69
2021/05/26 13:50:43;;;;;;;;;;;20.60;57.80;;;;;;5028756;28;19932;-69
2021/05/26 13:53:11;;;;;;;;;;;20.60;57.80;;;;;;5032113;28;19929;-69
2021/05/26 13:55:38;;;;;;;;;;;20.60;57.80;;;;;;5031821;28;19947;-68
2021/05/26 13:58:04;;;;;;;;;;;20.60;57.60;;;;;;5041583;28;20019;-69
2021/05/26 14:00:31;;;;;;;;;;;20.60;57.80;;;;;;5038051;28;19940;-69
2021/05/26 14:02:57;;;;;;;;;;;20.60;57.80;;;;;;5034880;28;19932;-70
2021/05/26 14:05:23;;;;;;;;;;;20.60;58.00;;;;;;5031771;28;19986;-70
2021/05/26 14:07:49;;;;;;;;;;;20.60;57.80;;;;;;5031824;28;19932;-69
2021/05/26 14:10:16;;;;;;;;;;;20.60;57.90;;;;;;5036075;28;19929;-69
2021/05/26 14:12:43;;;;;;;;;;;20.60;57.70;;;;;;5033587;28;20015;-68
2021/05/26 14:15:10;;;;;;;;;;;20.60;57.80;;;;;;5027094;28;19943;-69
2021/05/26 14:17:36;;;;;;;;;;;20.60;57.90;;;;;;5034619;28;19929;-69